sensor_id;sensor_type;location;lat;lon;timestamp;P1;durP1;ratioP1;P2;durP2;ratioP2
1346;SDS011;667;48.796;9.480;2023-02-26T00:01:02;3.33;;;2.30;;
1346;SDS011;667;48.796;9.480;2023-02-26T00:03:36;2.17;;;1.70;;
1346;SDS011;667;48.796;9.480;2023-02-26T00:06:01;2.80;;;1.97;;
1346;SDS011;667;48.796;9.480;2023-02-26T00:08:27;4.53;;;1.67;;
1346;SDS011;667;48.796;9.480;2023-02-26T00:10:55;4.70;;;1.63;;
1346;SDS011;667;48.796;9.480;2023-02-26T00:13:21;2.75;;;2.55;;
1346;SDS011;667;48.796;9.480;2023-02-26T00:15:47;4.10;;;2.77;;
1346;SDS011;667;48.796;9.480;2023-02-26T00:18:16;5.63;;;3.25;;
1346;SDS011;667;48.796;9.480;2023-02-26T00:20:42;3.17;;;2.40;;
1346;SDS011;667;48.796;9.480;2023-02-26T00:23:11;4.50;;;2.50;;
1346;SDS011;667;48.796;9.480;2023-02-26T00:25:41;5.65;;;2.90;;
1346;SDS011;667;48.796;9.480;2023-02-26T00:28:07;3.00;;;2.27;;
1346;SDS011;667;48.796;9.480;2023-02-26T00:30:33;4.47;;;2.30;;
1346;SDS011;667;48.796;9.480;2023-02-26T00:32:59;2.50;;;2.10;;
1346;SDS011;667;48.796;9.480;2023-02-26T00:35:26;2.53;;;1.85;;
1346;SDS011;667;48.796;9.480;2023-02-26T00:43:09;2.00;;;1.75;;
1346;SDS011;667;48.796;9.480;2023-02-26T00:51:39;2.25;;;1.80;;
1346;SDS011;667;48.796;9.480;2023-02-26T00:56:47;5.75;;;2.40;;
1346;SDS011;667;48.796;9.480;2023-02-26T00:59:13;2.63;;;2.28;;
1346;SDS011;667;48.796;9.480;2023-02-26T01:01:39;2.87;;;2.40;;
1346;SDS011;667;48.796;9.480;2023-02-26T01:04:05;1.83;;;1.67;;
1346;SDS011;667;48.796;9.480;2023-02-26T01:06:32;5.22;;;1.92;;
1346;SDS011;667;48.796;9.480;2023-02-26T01:09:16;2.00;;;1.90;;
1346;SDS011;667;48.796;9.480;2023-02-26T01:11:46;1.88;;;1.50;;
1346;SDS011;667;48.796;9.480;2023-02-26T01:14:11;2.20;;;1.77;;
1346;SDS011;667;48.796;9.480;2023-02-26T01:16:41;3.27;;;1.57;;
1346;SDS011;667;48.796;9.480;2023-02-26T01:22:19;1.70;;;1.30;;
1346;SDS011;667;48.796;9.480;2023-02-26T01:24:55;2.20;;;1.75;;
1346;SDS011;667;48.796;9.480;2023-02-26T01:27:26;2.17;;;1.80;;
1346;SDS011;667;48.796;9.480;2023-02-26T01:29:52;2.63;;;2.03;;
1346;SDS011;667;48.796;9.480;2023-02-26T01:32:22;3.07;;;1.80;;
1346;SDS011;667;48.796;9.480;2023-02-26T01:40:59;5.47;;;3.00;;
1346;SDS011;667;48.796;9.480;2023-02-26T01:49:03;5.05;;;3.00;;
1346;SDS011;667;48.796;9.480;2023-02-26T01:54:21;5.50;;;3.45;;
1346;SDS011;667;48.796;9.480;2023-02-26T01:57:02;3.70;;;2.75;;
1346;SDS011;667;48.796;9.480;2023-02-26T01:59:29;3.75;;;2.63;;
1346;SDS011;667;48.796;9.480;2023-02-26T02:01:56;3.42;;;2.70;;
1346;SDS011;667;48.796;9.480;2023-02-26T02:04:23;4.20;;;2.58;;
1346;SDS011;667;48.796;9.480;2023-02-26T02:06:51;2.20;;;2.00;;
1346;SDS011;667;48.796;9.480;2023-02-26T02:09:17;3.90;;;2.90;;
1346;SDS011;667;48.796;9.480;2023-02-26T02:23:38;2.75;;;2.55;;
1346;SDS011;667;48.796;9.480;2023-02-26T02:29:25;2.10;;;1.70;;
1346;SDS011;667;48.796;9.480;2023-02-26T02:32:17;2.75;;;2.15;;
1346;SDS011;667;48.796;9.480;2023-02-26T02:34:56;3.20;;;2.50;;
1346;SDS011;667;48.796;9.480;2023-02-26T02:37:49;3.05;;;2.20;;
1346;SDS011;667;48.796;9.480;2023-02-26T02:40:31;2.33;;;1.88;;
1346;SDS011;667;48.796;9.480;2023-02-26T02:43:06;3.58;;;2.20;;
1346;SDS011;667;48.796;9.480;2023-02-26T02:45:59;1.90;;;1.65;;
1346;SDS011;667;48.796;9.480;2023-02-26T02:48:32;2.80;;;2.17;;
1346;SDS011;667;48.796;9.480;2023-02-26T02:51:16;2.20;;;1.98;;
1346;SDS011;667;48.796;9.480;2023-02-26T02:56:19;2.83;;;1.90;;
1346;SDS011;667;48.796;9.480;2023-02-26T02:58:50;2.58;;;2.38;;
1346;SDS011;667;48.796;9.480;2023-02-26T03:01:20;3.30;;;2.20;;
1346;SDS011;667;48.796;9.480;2023-02-26T03:03:55;2.88;;;2.40;;
1346;SDS011;667;48.796;9.480;2023-02-26T03:06:21;2.53;;;1.60;;
1346;SDS011;667;48.796;9.480;2023-02-26T03:08:48;4.75;;;2.13;;
1346;SDS011;667;48.796;9.480;2023-02-26T03:11:16;2.30;;;2.10;;
1346;SDS011;667;48.796;9.480;2023-02-26T03:13:41;2.80;;;1.83;;
1346;SDS011;667;48.796;9.480;2023-02-26T03:27:00;2.88;;;2.03;;
1346;SDS011;667;48.796;9.480;2023-02-26T03:29:50;4.55;;;2.08;;
1346;SDS011;667;48.796;9.480;2023-02-26T03:32:22;3.78;;;2.28;;
1346;SDS011;667;48.796;9.480;2023-02-26T03:37:54;2.30;;;2.10;;
1346;SDS011;667;48.796;9.480;2023-02-26T03:40:30;3.88;;;2.20;;
1346;SDS011;667;48.796;9.480;2023-02-26T03:43:11;3.25;;;2.65;;
1346;SDS011;667;48.796;9.480;2023-02-26T03:45:51;5.65;;;2.70;;
1346;SDS011;667;48.796;9.480;2023-02-26T03:48:22;3.05;;;2.60;;
1346;SDS011;667;48.796;9.480;2023-02-26T03:50:51;3.72;;;2.90;;
1346;SDS011;667;48.796;9.480;2023-02-26T03:53:22;3.83;;;2.95;;
1346;SDS011;667;48.796;9.480;2023-02-26T03:56:04;4.35;;;2.60;;
1346;SDS011;667;48.796;9.480;2023-02-26T03:58:47;4.43;;;2.80;;
1346;SDS011;667;48.796;9.480;2023-02-26T04:03:47;4.00;;;2.40;;
1346;SDS011;667;48.796;9.480;2023-02-26T04:06:20;3.38;;;2.50;;
1346;SDS011;667;48.796;9.480;2023-02-26T04:08:47;3.30;;;2.80;;
1346;SDS011;667;48.796;9.480;2023-02-26T04:11:17;6.40;;;2.77;;
1346;SDS011;667;48.796;9.480;2023-02-26T04:13:45;3.33;;;2.10;;
1346;SDS011;667;48.796;9.480;2023-02-26T04:16:11;2.13;;;1.92;;
1346;SDS011;667;48.796;9.480;2023-02-26T04:18:37;2.40;;;2.13;;
1346;SDS011;667;48.796;9.480;2023-02-26T04:21:03;2.40;;;1.83;;
1346;SDS011;667;48.796;9.480;2023-02-26T04:23:29;3.13;;;2.27;;
1346;SDS011;667;48.796;9.480;2023-02-26T04:25:54;4.50;;;2.57;;
1346;SDS011;667;48.796;9.480;2023-02-26T04:28:20;2.70;;;2.30;;
1346;SDS011;667;48.796;9.480;2023-02-26T04:30:45;3.30;;;2.37;;
1346;SDS011;667;48.796;9.480;2023-02-26T04:33:12;3.30;;;2.00;;
1346;SDS011;667;48.796;9.480;2023-02-26T04:35:39;2.10;;;1.98;;
1346;SDS011;667;48.796;9.480;2023-02-26T04:38:05;2.97;;;2.40;;
1346;SDS011;667;48.796;9.480;2023-02-26T04:40:31;3.40;;;2.20;;
1346;SDS011;667;48.796;9.480;2023-02-26T04:42:56;5.93;;;2.70;;
1346;SDS011;667;48.796;9.480;2023-02-26T04:45:22;2.93;;;1.97;;
1346;SDS011;667;48.796;9.480;2023-02-26T04:47:47;3.13;;;2.40;;
1346;SDS011;667;48.796;9.480;2023-02-26T04:50:13;2.30;;;2.00;;
1346;SDS011;667;48.796;9.480;2023-02-26T04:52:39;2.17;;;1.97;;
1346;SDS011;667;48.796;9.480;2023-02-26T04:55:04;2.70;;;2.00;;
1346;SDS011;667;48.796;9.480;2023-02-26T04:57:31;2.45;;;2.00;;
1346;SDS011;667;48.796;9.480;2023-02-26T04:59:57;6.73;;;2.30;;
1346;SDS011;667;48.796;9.480;2023-02-26T05:02:23;2.50;;;2.30;;
1346;SDS011;667;48.796;9.480;2023-02-26T05:04:48;2.37;;;1.87;;
1346;SDS011;667;48.796;9.480;2023-02-26T05:07:14;3.73;;;2.33;;
1346;SDS011;667;48.796;9.480;2023-02-26T05:09:39;4.37;;;2.60;;
1346;SDS011;667;48.796;9.480;2023-02-26T05:12:05;5.93;;;3.10;;
1346;SDS011;667;48.796;9.480;2023-02-26T05:14:30;2.90;;;2.60;;
1346;SDS011;667;48.796;9.480;2023-02-26T05:16:56;2.73;;;2.20;;
1346;SDS011;667;48.796;9.480;2023-02-26T05:19:22;8.20;;;2.97;;
1346;SDS011;667;48.796;9.480;2023-02-26T05:21:48;3.35;;;2.38;;
1346;SDS011;667;48.796;9.480;2023-02-26T05:24:14;2.73;;;2.03;;
1346;SDS011;667;48.796;9.480;2023-02-26T05:26:39;3.58;;;2.50;;
1346;SDS011;667;48.796;9.480;2023-02-26T05:29:05;3.80;;;2.03;;
1346;SDS011;667;48.796;9.480;2023-02-26T05:31:31;2.57;;;2.17;;
1346;SDS011;667;48.796;9.480;2023-02-26T05:33:56;4.80;;;2.20;;
1346;SDS011;667;48.796;9.480;2023-02-26T05:36:22;3.87;;;2.33;;
1346;SDS011;667;48.796;9.480;2023-02-26T05:38:48;3.93;;;2.00;;
1346;SDS011;667;48.796;9.480;2023-02-26T05:41:13;3.20;;;2.00;;
1346;SDS011;667;48.796;9.480;2023-02-26T05:43:39;2.23;;;2.03;;
1346;SDS011;667;48.796;9.480;2023-02-26T05:46:05;2.63;;;2.42;;
1346;SDS011;667;48.796;9.480;2023-02-26T05:48:31;3.63;;;2.03;;
1346;SDS011;667;48.796;9.480;2023-02-26T05:50:57;2.70;;;2.20;;
1346;SDS011;667;48.796;9.480;2023-02-26T05:53:22;3.77;;;1.90;;
1346;SDS011;667;48.796;9.480;2023-02-26T05:55:48;2.00;;;1.80;;
1346;SDS011;667;48.796;9.480;2023-02-26T05:58:14;3.28;;;2.10;;
1346;SDS011;667;48.796;9.480;2023-02-26T06:00:40;2.40;;;2.20;;
1346;SDS011;667;48.796;9.480;2023-02-26T06:03:06;4.55;;;2.38;;
1346;SDS011;667;48.796;9.480;2023-02-26T06:05:32;4.17;;;2.00;;
1346;SDS011;667;48.796;9.480;2023-02-26T06:07:58;2.70;;;2.13;;
1346;SDS011;667;48.796;9.480;2023-02-26T06:10:23;3.17;;;2.03;;
1346;SDS011;667;48.796;9.480;2023-02-26T06:12:49;2.37;;;2.17;;
1346;SDS011;667;48.796;9.480;2023-02-26T06:15:14;4.17;;;2.17;;
1346;SDS011;667;48.796;9.480;2023-02-26T06:17:40;2.50;;;1.83;;
1346;SDS011;667;48.796;9.480;2023-02-26T06:20:06;3.10;;;2.37;;
1346;SDS011;667;48.796;9.480;2023-02-26T06:22:32;2.67;;;2.38;;
1346;SDS011;667;48.796;9.480;2023-02-26T06:24:57;2.30;;;2.10;;
1346;SDS011;667;48.796;9.480;2023-02-26T06:27:23;2.27;;;1.70;;
1346;SDS011;667;48.796;9.480;2023-02-26T06:29:49;2.90;;;2.30;;
1346;SDS011;667;48.796;9.480;2023-02-26T06:32:16;4.45;;;2.30;;
1346;SDS011;667;48.796;9.480;2023-02-26T06:34:41;5.43;;;2.03;;
1346;SDS011;667;48.796;9.480;2023-02-26T06:37:07;3.67;;;3.33;;
1346;SDS011;667;48.796;9.480;2023-02-26T06:39:32;4.83;;;3.43;;
1346;SDS011;667;48.796;9.480;2023-02-26T06:41:58;7.30;;;5.87;;
1346;SDS011;667;48.796;9.480;2023-02-26T06:44:24;6.87;;;5.80;;
1346;SDS011;667;48.796;9.480;2023-02-26T06:46:49;6.63;;;5.67;;
1346;SDS011;667;48.796;9.480;2023-02-26T06:49:15;6.63;;;4.77;;
1346;SDS011;667;48.796;9.480;2023-02-26T06:51:41;4.37;;;3.97;;
1346;SDS011;667;48.796;9.480;2023-02-26T06:54:06;6.00;;;3.73;;
1346;SDS011;667;48.796;9.480;2023-02-26T06:56:32;6.27;;;4.37;;
1346;SDS011;667;48.796;9.480;2023-02-26T06:58:58;4.30;;;2.63;;
1346;SDS011;667;48.796;9.480;2023-02-26T07:01:23;3.67;;;2.90;;
1346;SDS011;667;48.796;9.480;2023-02-26T07:03:49;5.30;;;2.60;;
1346;SDS011;667;48.796;9.480;2023-02-26T07:06:15;4.50;;;3.20;;
1346;SDS011;667;48.796;9.480;2023-02-26T07:08:40;4.97;;;3.70;;
1346;SDS011;667;48.796;9.480;2023-02-26T07:11:06;4.80;;;3.53;;
1346;SDS011;667;48.796;9.480;2023-02-26T07:13:33;4.65;;;3.95;;
1346;SDS011;667;48.796;9.480;2023-02-26T07:16:03;7.30;;;3.00;;
1346;SDS011;667;48.796;9.480;2023-02-26T07:18:31;3.25;;;2.80;;
1346;SDS011;667;48.796;9.480;2023-02-26T07:20:58;3.65;;;3.00;;
1346;SDS011;667;48.796;9.480;2023-02-26T07:23:23;3.27;;;2.77;;
1346;SDS011;667;48.796;9.480;2023-02-26T07:25:49;5.23;;;3.33;;
1346;SDS011;667;48.796;9.480;2023-02-26T07:28:14;3.03;;;2.73;;
1346;SDS011;667;48.796;9.480;2023-02-26T07:30:40;3.40;;;2.70;;
1346;SDS011;667;48.796;9.480;2023-02-26T07:33:06;4.43;;;3.20;;
1346;SDS011;667;48.796;9.480;2023-02-26T07:35:33;5.45;;;3.38;;
1346;SDS011;667;48.796;9.480;2023-02-26T07:37:58;7.00;;;4.83;;
1346;SDS011;667;48.796;9.480;2023-02-26T07:40:24;6.50;;;5.53;;
1346;SDS011;667;48.796;9.480;2023-02-26T07:42:49;21.30;;;13.50;;
1346;SDS011;667;48.796;9.480;2023-02-26T07:45:15;14.90;;;10.80;;
1346;SDS011;667;48.796;9.480;2023-02-26T07:47:46;13.43;;;9.98;;
1346;SDS011;667;48.796;9.480;2023-02-26T07:50:12;9.65;;;4.78;;
1346;SDS011;667;48.796;9.480;2023-02-26T07:52:38;9.50;;;6.03;;
1346;SDS011;667;48.796;9.480;2023-02-26T07:55:05;7.80;;;3.70;;
1346;SDS011;667;48.796;9.480;2023-02-26T07:57:32;9.10;;;5.65;;
1346;SDS011;667;48.796;9.480;2023-02-26T07:59:57;6.43;;;4.87;;
1346;SDS011;667;48.796;9.480;2023-02-26T08:02:23;5.00;;;4.20;;
1346;SDS011;667;48.796;9.480;2023-02-26T08:04:49;5.35;;;4.10;;
1346;SDS011;667;48.796;9.480;2023-02-26T08:07:15;6.10;;;4.83;;
1346;SDS011;667;48.796;9.480;2023-02-26T08:09:40;6.60;;;5.53;;
1346;SDS011;667;48.796;9.480;2023-02-26T08:12:06;8.97;;;5.13;;
1346;SDS011;667;48.796;9.480;2023-02-26T08:14:31;7.67;;;4.70;;
1346;SDS011;667;48.796;9.480;2023-02-26T08:16:57;5.80;;;3.93;;
1346;SDS011;667;48.796;9.480;2023-02-26T08:19:23;3.67;;;3.20;;
1346;SDS011;667;48.796;9.480;2023-02-26T08:21:48;9.63;;;3.10;;
1346;SDS011;667;48.796;9.480;2023-02-26T08:24:14;5.83;;;4.00;;
1346;SDS011;667;48.796;9.480;2023-02-26T08:26:39;4.13;;;2.83;;
1346;SDS011;667;48.796;9.480;2023-02-26T08:29:05;3.70;;;3.20;;
1346;SDS011;667;48.796;9.480;2023-02-26T08:31:31;4.47;;;2.60;;
1346;SDS011;667;48.796;9.480;2023-02-26T08:33:59;3.85;;;2.55;;
1346;SDS011;667;48.796;9.480;2023-02-26T08:36:25;2.58;;;2.22;;
1346;SDS011;667;48.796;9.480;2023-02-26T08:38:51;4.70;;;3.20;;
1346;SDS011;667;48.796;9.480;2023-02-26T08:41:16;4.80;;;2.70;;
1346;SDS011;667;48.796;9.480;2023-02-26T08:43:42;6.33;;;2.90;;
1346;SDS011;667;48.796;9.480;2023-02-26T08:46:08;3.72;;;2.42;;
1346;SDS011;667;48.796;9.480;2023-02-26T08:48:34;3.57;;;2.30;;
1346;SDS011;667;48.796;9.480;2023-02-26T08:50:59;2.57;;;2.20;;
1346;SDS011;667;48.796;9.480;2023-02-26T08:53:25;3.10;;;2.10;;
1346;SDS011;667;48.796;9.480;2023-02-26T08:55:51;7.40;;;2.50;;
1346;SDS011;667;48.796;9.480;2023-02-26T08:58:17;4.45;;;2.90;;
1346;SDS011;667;48.796;9.480;2023-02-26T09:00:44;4.32;;;2.25;;
1346;SDS011;667;48.796;9.480;2023-02-26T09:03:10;6.00;;;2.13;;
1346;SDS011;667;48.796;9.480;2023-02-26T09:05:36;2.88;;;1.95;;
1346;SDS011;667;48.796;9.480;2023-02-26T09:08:02;1.55;;;1.45;;
1346;SDS011;667;48.796;9.480;2023-02-26T09:10:29;4.13;;;2.70;;
1346;SDS011;667;48.796;9.480;2023-02-26T09:12:54;2.75;;;2.55;;
1346;SDS011;667;48.796;9.480;2023-02-26T09:15:20;5.10;;;2.60;;
1346;SDS011;667;48.796;9.480;2023-02-26T09:17:46;3.50;;;2.30;;
1346;SDS011;667;48.796;9.480;2023-02-26T09:20:12;2.47;;;2.20;;
1346;SDS011;667;48.796;9.480;2023-02-26T09:22:38;2.00;;;1.90;;
1346;SDS011;667;48.796;9.480;2023-02-26T09:25:04;2.87;;;2.50;;
1346;SDS011;667;48.796;9.480;2023-02-26T09:27:30;3.30;;;2.80;;
1346;SDS011;667;48.796;9.480;2023-02-26T09:29:56;3.40;;;2.33;;
1346;SDS011;667;48.796;9.480;2023-02-26T09:32:21;3.30;;;2.20;;
1346;SDS011;667;48.796;9.480;2023-02-26T09:34:47;1.70;;;1.57;;
1346;SDS011;667;48.796;9.480;2023-02-26T09:37:13;6.07;;;1.90;;
1346;SDS011;667;48.796;9.480;2023-02-26T09:39:38;2.53;;;2.30;;
1346;SDS011;667;48.796;9.480;2023-02-26T09:42:10;3.37;;;2.90;;
1346;SDS011;667;48.796;9.480;2023-02-26T09:44:57;1.95;;;1.83;;
1346;SDS011;667;48.796;9.480;2023-02-26T09:47:32;2.65;;;1.80;;
1346;SDS011;667;48.796;9.480;2023-02-26T09:50:19;2.30;;;2.05;;
1346;SDS011;667;48.796;9.480;2023-02-26T09:52:56;2.45;;;1.90;;
1346;SDS011;667;48.796;9.480;2023-02-26T09:57:53;2.40;;;1.80;;
1346;SDS011;667;48.796;9.480;2023-02-26T10:00:36;2.83;;;1.65;;
1346;SDS011;667;48.796;9.480;2023-02-26T10:05:51;2.03;;;1.90;;
1346;SDS011;667;48.796;9.480;2023-02-26T10:08:45;1.83;;;1.73;;
1346;SDS011;667;48.796;9.480;2023-02-26T10:13:51;3.40;;;2.27;;
1346;SDS011;667;48.796;9.480;2023-02-26T10:16:24;3.67;;;2.47;;
1346;SDS011;667;48.796;9.480;2023-02-26T10:19:03;2.83;;;2.47;;
1346;SDS011;667;48.796;9.480;2023-02-26T10:21:41;2.30;;;1.98;;
1346;SDS011;667;48.796;9.480;2023-02-26T10:24:26;1.98;;;1.85;;
1346;SDS011;667;48.796;9.480;2023-02-26T10:27:00;2.28;;;1.95;;
1346;SDS011;667;48.796;9.480;2023-02-26T10:29:33;3.25;;;1.90;;
1346;SDS011;667;48.796;9.480;2023-02-26T10:35:03;2.40;;;2.20;;
1346;SDS011;667;48.796;9.480;2023-02-26T10:37:44;3.50;;;2.88;;
1346;SDS011;667;48.796;9.480;2023-02-26T10:40:22;3.72;;;2.33;;
1346;SDS011;667;48.796;9.480;2023-02-26T10:43:20;2.92;;;2.17;;
1346;SDS011;667;48.796;9.480;2023-02-26T10:51:28;4.75;;;2.25;;
1346;SDS011;667;48.796;9.480;2023-02-26T10:54:05;4.47;;;2.55;;
1346;SDS011;667;48.796;9.480;2023-02-26T10:56:45;2.20;;;2.00;;
1346;SDS011;667;48.796;9.480;2023-02-26T10:59:11;5.00;;;2.40;;
1346;SDS011;667;48.796;9.480;2023-02-26T11:01:37;2.20;;;2.00;;
1346;SDS011;667;48.796;9.480;2023-02-26T11:04:06;3.00;;;2.70;;
1346;SDS011;667;48.796;9.480;2023-02-26T11:06:37;3.35;;;2.25;;
1346;SDS011;667;48.796;9.480;2023-02-26T11:09:19;2.95;;;2.10;;
1346;SDS011;667;48.796;9.480;2023-02-26T11:11:53;3.63;;;2.67;;
1346;SDS011;667;48.796;9.480;2023-02-26T11:14:21;2.20;;;2.00;;
1346;SDS011;667;48.796;9.480;2023-02-26T11:16:53;5.28;;;2.13;;
1346;SDS011;667;48.796;9.480;2023-02-26T11:19:34;2.40;;;2.20;;
1346;SDS011;667;48.796;9.480;2023-02-26T11:22:02;2.85;;;2.60;;
1346;SDS011;667;48.796;9.480;2023-02-26T11:24:36;4.20;;;2.60;;
1346;SDS011;667;48.796;9.480;2023-02-26T11:27:16;3.85;;;2.13;;
1346;SDS011;667;48.796;9.480;2023-02-26T11:29:47;2.13;;;1.92;;
1346;SDS011;667;48.796;9.480;2023-02-26T11:32:18;2.08;;;1.92;;
1346;SDS011;667;48.796;9.480;2023-02-26T11:34:47;3.00;;;2.10;;
1346;SDS011;667;48.796;9.480;2023-02-26T11:37:22;2.47;;;2.28;;
1346;SDS011;667;48.796;9.480;2023-02-26T11:39:54;4.00;;;2.00;;
1346;SDS011;667;48.796;9.480;2023-02-26T11:42:23;3.35;;;1.98;;
1346;SDS011;667;48.796;9.480;2023-02-26T11:44:49;3.75;;;1.98;;
1346;SDS011;667;48.796;9.480;2023-02-26T11:47:18;3.03;;;2.35;;
1346;SDS011;667;48.796;9.480;2023-02-26T11:49:52;2.83;;;1.90;;
1346;SDS011;667;48.796;9.480;2023-02-26T11:54:48;2.20;;;1.85;;
1346;SDS011;667;48.796;9.480;2023-02-26T11:57:19;2.00;;;1.80;;
1346;SDS011;667;48.796;9.480;2023-02-26T11:59:49;2.75;;;2.17;;
1346;SDS011;667;48.796;9.480;2023-02-26T12:02:17;2.90;;;1.98;;
1346;SDS011;667;48.796;9.480;2023-02-26T12:04:46;2.03;;;1.92;;
1346;SDS011;667;48.796;9.480;2023-02-26T12:07:14;2.58;;;2.38;;
1346;SDS011;667;48.796;9.480;2023-02-26T12:09:41;1.83;;;1.73;;
1346;SDS011;667;48.796;9.480;2023-02-26T12:20:29;2.05;;;1.85;;
1346;SDS011;667;48.796;9.480;2023-02-26T12:28:49;2.10;;;1.90;;
1346;SDS011;667;48.796;9.480;2023-02-26T12:35:01;2.33;;;1.92;;
1346;SDS011;667;48.796;9.480;2023-02-26T12:38:02;2.00;;;1.90;;
1346;SDS011;667;48.796;9.480;2023-02-26T12:43:31;2.97;;;1.77;;
1346;SDS011;667;48.796;9.480;2023-02-26T13:05:41;1.70;;;1.60;;
1346;SDS011;667;48.796;9.480;2023-02-26T13:07:51;2.13;;;1.58;;
1346;SDS011;667;48.796;9.480;2023-02-26T13:21:44;1.35;;;1.25;;
1346;SDS011;667;48.796;9.480;2023-02-26T13:24:22;1.35;;;1.20;;
1346;SDS011;667;48.796;9.480;2023-02-26T13:26:52;1.42;;;1.10;;
1346;SDS011;667;48.796;9.480;2023-02-26T13:29:33;2.17;;;1.50;;
1346;SDS011;667;48.796;9.480;2023-02-26T13:32:03;2.17;;;1.77;;
1346;SDS011;667;48.796;9.480;2023-02-26T13:34:56;1.40;;;1.30;;
1346;SDS011;667;48.796;9.480;2023-02-26T13:37:25;1.00;;;1.00;;
1346;SDS011;667;48.796;9.480;2023-02-26T13:42:47;1.10;;;1.00;;
1346;SDS011;667;48.796;9.480;2023-02-26T13:48:25;1.35;;;1.10;;
1346;SDS011;667;48.796;9.480;2023-02-26T13:51:05;2.13;;;1.10;;
1346;SDS011;667;48.796;9.480;2023-02-26T13:56:06;1.50;;;1.40;;
1346;SDS011;667;48.796;9.480;2023-02-26T13:58:38;1.00;;;1.00;;
1346;SDS011;667;48.796;9.480;2023-02-26T14:03:44;1.10;;;1.00;;
1346;SDS011;667;48.796;9.480;2023-02-26T14:06:24;1.17;;;1.00;;
1346;SDS011;667;48.796;9.480;2023-02-26T14:09:02;1.50;;;1.40;;
1346;SDS011;667;48.796;9.480;2023-02-26T14:11:36;2.65;;;2.10;;
1346;SDS011;667;48.796;9.480;2023-02-26T14:16:35;1.80;;;1.67;;
1346;SDS011;667;48.796;9.480;2023-02-26T14:19:21;1.20;;;1.10;;
1346;SDS011;667;48.796;9.480;2023-02-26T14:24:43;1.30;;;1.20;;
1346;SDS011;667;48.796;9.480;2023-02-26T14:32:32;1.20;;;1.10;;
1346;SDS011;667;48.796;9.480;2023-02-26T14:35:13;2.92;;;1.50;;
1346;SDS011;667;48.796;9.480;2023-02-26T14:37:43;1.80;;;1.50;;
1346;SDS011;667;48.796;9.480;2023-02-26T14:40:19;1.30;;;1.20;;
1346;SDS011;667;48.796;9.480;2023-02-26T14:42:53;1.27;;;1.13;;
1346;SDS011;667;48.796;9.480;2023-02-26T14:45:31;2.55;;;1.73;;
1346;SDS011;667;48.796;9.480;2023-02-26T14:48:05;2.38;;;1.60;;
1346;SDS011;667;48.796;9.480;2023-02-26T14:58:42;1.40;;;1.30;;
1346;SDS011;667;48.796;9.480;2023-02-26T15:01:35;2.05;;;1.25;;
1346;SDS011;667;48.796;9.480;2023-02-26T15:04:28;2.33;;;1.50;;
1346;SDS011;667;48.796;9.480;2023-02-26T15:12:47;1.23;;;1.13;;
1346;SDS011;667;48.796;9.480;2023-02-26T15:20:58;1.25;;;1.00;;
1346;SDS011;667;48.796;9.480;2023-02-26T15:23:49;1.60;;;1.50;;
1346;SDS011;667;48.796;9.480;2023-02-26T15:26:30;1.67;;;1.20;;
1346;SDS011;667;48.796;9.480;2023-02-26T15:28:59;1.52;;;1.42;;
1346;SDS011;667;48.796;9.480;2023-02-26T15:34:18;1.92;;;1.35;;
1346;SDS011;667;48.796;9.480;2023-02-26T15:36:46;2.45;;;1.52;;
1346;SDS011;667;48.796;9.480;2023-02-26T15:39:15;1.25;;;1.13;;
1346;SDS011;667;48.796;9.480;2023-02-26T15:41:42;2.55;;;1.42;;
1346;SDS011;667;48.796;9.480;2023-02-26T15:44:18;1.83;;;1.40;;
1346;SDS011;667;48.796;9.480;2023-02-26T15:46:54;1.42;;;1.20;;
1346;SDS011;667;48.796;9.480;2023-02-26T15:51:49;2.77;;;2.30;;
1346;SDS011;667;48.796;9.480;2023-02-26T15:54:18;2.00;;;1.50;;
1346;SDS011;667;48.796;9.480;2023-02-26T15:56:47;1.40;;;1.30;;
1346;SDS011;667;48.796;9.480;2023-02-26T15:59:18;2.20;;;1.60;;
1346;SDS011;667;48.796;9.480;2023-02-26T16:01:48;5.68;;;1.67;;
1346;SDS011;667;48.796;9.480;2023-02-26T16:04:15;2.93;;;1.50;;
1346;SDS011;667;48.796;9.480;2023-02-26T16:06:45;1.73;;;1.40;;
1346;SDS011;667;48.796;9.480;2023-02-26T16:09:33;2.20;;;2.00;;
1346;SDS011;667;48.796;9.480;2023-02-26T16:12:07;2.00;;;1.80;;
1346;SDS011;667;48.796;9.480;2023-02-26T16:14:36;1.70;;;1.35;;
1346;SDS011;667;48.796;9.480;2023-02-26T16:17:05;2.55;;;1.63;;
1346;SDS011;667;48.796;9.480;2023-02-26T16:19:39;1.88;;;1.40;;
1346;SDS011;667;48.796;9.480;2023-02-26T16:24:43;1.35;;;1.25;;
1346;SDS011;667;48.796;9.480;2023-02-26T16:27:11;1.88;;;1.20;;
1346;SDS011;667;48.796;9.480;2023-02-26T16:29:40;1.58;;;1.20;;
1346;SDS011;667;48.796;9.480;2023-02-26T16:32:13;2.05;;;1.38;;
1346;SDS011;667;48.796;9.480;2023-02-26T16:34:40;3.05;;;1.67;;
1346;SDS011;667;48.796;9.480;2023-02-26T16:37:21;2.30;;;1.90;;
1346;SDS011;667;48.796;9.480;2023-02-26T16:39:46;1.60;;;1.20;;
1346;SDS011;667;48.796;9.480;2023-02-26T16:48:00;5.82;;;2.47;;
1346;SDS011;667;48.796;9.480;2023-02-26T16:50:32;1.73;;;1.30;;
1346;SDS011;667;48.796;9.480;2023-02-26T16:53:06;2.90;;;1.85;;
1346;SDS011;667;48.796;9.480;2023-02-26T16:55:36;3.97;;;2.22;;
1346;SDS011;667;48.796;9.480;2023-02-26T16:58:04;2.10;;;1.50;;
1346;SDS011;667;48.796;9.480;2023-02-26T17:00:33;2.22;;;2.03;;
1346;SDS011;667;48.796;9.480;2023-02-26T17:03:08;2.50;;;2.30;;
1346;SDS011;667;48.796;9.480;2023-02-26T17:05:38;6.45;;;2.22;;
1346;SDS011;667;48.796;9.480;2023-02-26T17:08:08;2.65;;;1.83;;
1346;SDS011;667;48.796;9.480;2023-02-26T17:10:44;1.88;;;1.42;;
1346;SDS011;667;48.796;9.480;2023-02-26T17:13:17;1.98;;;1.45;;
1346;SDS011;667;48.796;9.480;2023-02-26T17:15:47;4.43;;;1.30;;
1346;SDS011;667;48.796;9.480;2023-02-26T17:18:14;1.52;;;1.35;;
1346;SDS011;667;48.796;9.480;2023-02-26T17:20:40;1.97;;;1.50;;
1346;SDS011;667;48.796;9.480;2023-02-26T17:23:06;2.40;;;1.30;;
1346;SDS011;667;48.796;9.480;2023-02-26T17:25:39;1.60;;;1.50;;
1346;SDS011;667;48.796;9.480;2023-02-26T17:28:07;2.35;;;1.40;;
1346;SDS011;667;48.796;9.480;2023-02-26T17:30:37;3.05;;;2.47;;
1346;SDS011;667;48.796;9.480;2023-02-26T17:33:03;1.57;;;1.10;;
1346;SDS011;667;48.796;9.480;2023-02-26T17:35:28;1.10;;;1.00;;
1346;SDS011;667;48.796;9.480;2023-02-26T17:37:55;1.13;;;1.02;;
1346;SDS011;667;48.796;9.480;2023-02-26T17:40:26;1.40;;;1.30;;
1346;SDS011;667;48.796;9.480;2023-02-26T17:42:55;1.75;;;1.08;;
1346;SDS011;667;48.796;9.480;2023-02-26T17:45:21;1.53;;;1.37;;
1346;SDS011;667;48.796;9.480;2023-02-26T17:47:46;1.30;;;1.20;;
1346;SDS011;667;48.796;9.480;2023-02-26T17:53:05;2.10;;;1.80;;
1346;SDS011;667;48.796;9.480;2023-02-26T17:55:32;1.40;;;1.30;;
1346;SDS011;667;48.796;9.480;2023-02-26T17:57:59;3.70;;;2.30;;
1346;SDS011;667;48.796;9.480;2023-02-26T18:00:25;2.30;;;1.48;;
1346;SDS011;667;48.796;9.480;2023-02-26T18:02:51;6.27;;;3.00;;
1346;SDS011;667;48.796;9.480;2023-02-26T18:05:17;1.73;;;1.63;;
1346;SDS011;667;48.796;9.480;2023-02-26T18:07:43;3.50;;;1.58;;
1346;SDS011;667;48.796;9.480;2023-02-26T18:10:14;5.30;;;2.70;;
1346;SDS011;667;48.796;9.480;2023-02-26T18:12:42;3.80;;;2.25;;
1346;SDS011;667;48.796;9.480;2023-02-26T18:15:07;1.90;;;1.40;;
1346;SDS011;667;48.796;9.480;2023-02-26T18:17:35;2.72;;;1.63;;
1346;SDS011;667;48.796;9.480;2023-02-26T18:20:01;5.37;;;2.47;;
1346;SDS011;667;48.796;9.480;2023-02-26T18:22:30;4.30;;;2.50;;
1346;SDS011;667;48.796;9.480;2023-02-26T18:24:56;2.50;;;1.60;;
1346;SDS011;667;48.796;9.480;2023-02-26T18:27:22;3.20;;;2.20;;
1346;SDS011;667;48.796;9.480;2023-02-26T18:29:49;1.70;;;1.50;;
1346;SDS011;667;48.796;9.480;2023-02-26T18:32:15;3.57;;;2.30;;
1346;SDS011;667;48.796;9.480;2023-02-26T18:34:43;1.67;;;1.20;;
1346;SDS011;667;48.796;9.480;2023-02-26T18:37:12;1.30;;;1.20;;
1346;SDS011;667;48.796;9.480;2023-02-26T18:39:40;3.05;;;1.40;;
1346;SDS011;667;48.796;9.480;2023-02-26T18:42:07;4.78;;;1.92;;
1346;SDS011;667;48.796;9.480;2023-02-26T18:44:53;3.28;;;1.90;;
1346;SDS011;667;48.796;9.480;2023-02-26T18:47:20;3.27;;;2.33;;
1346;SDS011;667;48.796;9.480;2023-02-26T18:49:46;2.50;;;1.52;;
1346;SDS011;667;48.796;9.480;2023-02-26T18:52:13;2.30;;;1.73;;
1346;SDS011;667;48.796;9.480;2023-02-26T18:54:39;3.83;;;2.60;;
1346;SDS011;667;48.796;9.480;2023-02-26T18:57:05;3.87;;;2.33;;
1346;SDS011;667;48.796;9.480;2023-02-26T18:59:31;5.35;;;2.90;;